Time;durP1;ratioP1;P1;durP2;ratioP2;P2;SDS_P1;SDS_P2;PMS_P1;PMS_P2;Temp;Humidity;BMP_temperature;BMP_pressure;BME280_temperature;BME280_humidity;BME280_pressure;Samples;Min_cycle;Max_cycle;Signal;HPM_P1;HPM_P2
2023/03/23 00:00:08;;;;;;;13.77;10.13;;;9.50;99.90;;;;;;5049878;28;20053;-65
2023/03/23 00:02:37;;;;;;;12.90;9.65;;;9.00;99.90;;;;;;5046543;28;20033;-65
2023/03/23 00:05:07;;;;;;;16.17;11.55;;;8.60;99.90;;;;;;5047174;28;20041;-65
2023/03/23 00:07:34;;;;;;;13.90;10.50;;;8.20;99.90;;;;;;5054291;28;20044;-65
2023/03/23 00:10:02;;;;;;;12.48;8.52;;;8.10;99.90;;;;;;5050343;28;20686;-65
2023/03/23 00:12:33;;;;;;;16.25;8.65;;;8.10;99.90;;;;;;5051276;28;20057;-65
2023/03/23 00:15:04;;;;;;;12.07;9.00;;;8.00;99.90;;;;;;5057529;28;20035;-65
2023/03/23 00:17:32;;;;;;;11.97;9.43;;;8.10;99.90;;;;;;5053818;28;20906;-65
2023/03/23 00:20:00;;;;;;;12.75;8.75;;;8.00;99.90;;;;;;5049381;28;20289;-65
2023/03/23 00:22:28;;;;;;;14.35;8.93;;;7.90;99.90;;;;;;5051583;28;20108;-65
2023/03/23 00:24:54;;;;;;;12.95;9.23;;;7.90;99.90;;;;;;5056196;28;20036;-65
2023/03/23 00:27:24;;;;;;;15.02;9.90;;;7.90;99.90;;;;;;5056747;28;20051;-65
2023/03/23 00:29:55;;;;;;;13.75;9.38;;;8.00;99.90;;;;;;5052097;28;20658;-66
2023/03/23 00:32:27;;;;;;;14.17;9.73;;;8.10;99.90;;;;;;5050532;28;20499;-66
2023/03/23 00:34:53;;;;;;;;;;;8.30;99.90;;;;;;5051441;28;20032;-66
2023/03/23 00:37:19;;;;;;;15.07;11.20;;;8.20;99.90;;;;;;5056781;28;20274;-66
2023/03/23 00:39:46;;;;;;;13.07;10.27;;;7.90;99.90;;;;;;5052681;28;20044;-66
2023/03/23 00:42:16;;;;;;;12.25;9.25;;;7.80;99.90;;;;;;5049267;28;20048;-66
2023/03/23 00:44:43;;;;;;;9.88;7.93;;;7.70;99.90;;;;;;5051773;28;20046;-65
2023/03/23 00:47:10;;;;;;;13.27;8.15;;;7.70;99.90;;;;;;5056332;28;20048;-65
2023/03/23 00:49:36;;;;;;;12.07;8.45;;;7.70;99.90;;;;;;5051077;28;20098;-65
2023/03/23 00:52:04;;;;;;;11.27;8.45;;;7.60;99.90;;;;;;5053783;28;20029;-65
2023/03/23 00:54:30;;;;;;;12.20;8.70;;;7.40;99.90;;;;;;5051226;28;20390;-64
2023/03/23 00:56:56;;;;;;;10.23;8.45;;;7.30;99.90;;;;;;5054342;28;20028;-65
2023/03/23 00:59:22;;;;;;;10.55;7.68;;;7.30;99.90;;;;;;5055498;28;20040;-65
2023/03/23 01:01:48;;;;;;;8.40;6.85;;;7.20;99.90;;;;;;5051052;28;20504;-65
2023/03/23 01:04:15;;;;;;;9.23;6.78;;;7.00;99.90;;;;;;5056947;28;20037;-65
2023/03/23 01:06:42;;;;;;;8.77;5.57;;;6.80;99.90;;;;;;5051695;28;20619;-65
2023/03/23 01:09:14;;;;;;;8.65;6.25;;;6.80;99.90;;;;;;5037967;28;20041;-65
2023/03/23 01:11:41;;;;;;;8.45;6.18;;;6.70;99.90;;;;;;5040321;28;20036;-65
2023/03/23 01:14:08;;;;;;;8.70;7.07;;;6.70;99.90;;;;;;5058324;28;20552;-65
2023/03/23 01:16:33;;;;;;;6.97;5.47;;;6.60;99.90;;;;;;5056781;28;20071;-65
2023/03/23 01:18:59;;;;;;;10.00;6.13;;;6.60;99.90;;;;;;5055084;28;20069;-65
2023/03/23 01:21:25;;;;;;;9.80;6.55;;;6.50;99.90;;;;;;5057202;28;20040;-65
2023/03/23 01:23:51;;;;;;;10.85;6.22;;;6.50;99.90;;;;;;5059445;28;20035;-65
2023/03/23 01:26:20;;;;;;;9.35;7.15;;;6.50;99.90;;;;;;5054785;28;20071;-65
2023/03/23 01:28:47;;;;;;;7.53;5.82;;;6.50;99.90;;;;;;5051562;28;20043;-65
2023/03/23 01:31:15;;;;;;;7.38;5.47;;;6.50;99.90;;;;;;5055423;28;20107;-66
2023/03/23 01:33:42;;;;;;;7.60;5.32;;;6.50;99.90;;;;;;5054287;28;20111;-65
2023/03/23 01:36:14;;;;;;;8.10;4.80;;;6.40;99.90;;;;;;5054846;28;20049;-63
2023/03/23 01:38:42;;;;;;;6.97;4.82;;;6.40;99.90;;;;;;5052557;28;20080;-63
2023/03/23 01:41:07;;;;;;;5.78;4.63;;;6.20;99.90;;;;;;5048268;28;20033;-63
2023/03/23 01:43:33;;;;;;;8.27;5.47;;;6.10;99.90;;;;;;5050251;28;20029;-63
2023/03/23 01:46:00;;;;;;;7.07;5.57;;;6.00;99.90;;;;;;5051778;28;20053;-63
2023/03/23 01:48:36;;;;;;;7.18;5.95;;;6.00;99.90;;;;;;5058192;28;20029;-63
2023/03/23 01:51:15;;;;;;;11.27;5.40;;;6.00;99.90;;;;;;5051652;28;20651;-63
2023/03/23 01:53:50;;;;;;;7.47;4.82;;;6.10;99.90;;;;;;5051673;28;20060;-64
2023/03/23 01:56:20;;;;;;;6.38;4.22;;;6.10;99.90;;;;;;5054308;28;20032;-65
2023/03/23 01:58:46;;;;;;;5.35;4.60;;;6.00;99.90;;;;;;5055231;28;20106;-66
2023/03/23 02:01:14;;;;;;;5.25;3.97;;;5.90;99.90;;;;;;5045519;28;20060;-65
2023/03/23 02:03:44;;;;;;;8.10;4.30;;;5.90;99.90;;;;;;5056792;28;20071;-66
2023/03/23 02:06:11;;;;;;;5.40;4.40;;;5.90;99.90;;;;;;5059018;28;20710;-65
2023/03/23 02:08:37;;;;;;;6.40;3.50;;;5.90;99.90;;;;;;5059236;28;20534;-65
2023/03/23 02:11:13;;;;;;;6.25;3.65;;;5.90;99.90;;;;;;5049701;28;20040;-65
2023/03/23 02:13:40;;;;;;;6.32;4.75;;;6.00;99.90;;;;;;5044781;28;20043;-65
2023/03/23 02:16:20;;;;;;;3.75;2.85;;;6.00;99.90;;;;;;5048949;28;20029;-64
2023/03/23 02:18:55;;;;;;;6.63;2.80;;;6.00;99.90;;;;;;5042922;28;20028;-64
2023/03/23 02:21:52;;;;;;;4.95;3.28;;;6.00;99.90;;;;;;5030824;28;20079;-65
2023/03/23 02:24:23;;;;;;;3.95;3.45;;;6.00;99.90;;;;;;5043034;28;20060;-64
2023/03/23 02:26:58;;;;;;;4.82;3.28;;;5.80;99.90;;;;;;5049452;28;20067;-65
2023/03/23 02:29:56;;;;;;;7.13;4.80;;;5.80;99.90;;;;;;5043064;28;20044;-64
2023/03/23 02:32:48;;;;;;;12.10;6.93;;;5.80;99.90;;;;;;5039428;28;20043;-65
2023/03/23 02:35:24;;;;;;;5.82;3.85;;;5.90;99.90;;;;;;5048042;28;20035;-65
2023/03/23 02:38:01;;;;;;;3.38;2.28;;;6.10;99.90;;;;;;5041880;28;20485;-65
2023/03/23 02:40:37;;;;;;;4.22;1.70;;;6.10;99.90;;;;;;5045677;28;20040;-65
2023/03/23 02:43:06;;;;;;;3.58;1.92;;;6.00;99.90;;;;;;5024758;28;20555;-65
2023/03/23 02:45:35;;;;;;;2.88;2.00;;;5.70;99.90;;;;;;5039725;28;20047;-65
2023/03/23 02:48:04;;;;;;;2.45;2.05;;;5.60;99.90;;;;;;5040796;28;20036;-65
2023/03/23 02:50:31;;;;;;;4.95;3.00;;;5.50;99.90;;;;;;5046232;28;20056;-66
2023/03/23 02:52:58;;;;;;;3.97;3.22;;;5.50;99.90;;;;;;5050303;28;20070;-65
2023/03/23 02:55:26;;;;;;;3.83;2.75;;;5.50;99.90;;;;;;5046947;28;20291;-64
2023/03/23 02:57:53;;;;;;;3.28;2.67;;;5.50;99.90;;;;;;5049328;28;20032;-65
2023/03/23 03:00:20;;;;;;;5.05;3.17;;;5.50;99.90;;;;;;5051808;28;20037;-64
2023/03/23 03:02:54;;;;;;;7.05;3.92;;;5.40;99.90;;;;;;5034151;28;20072;-64
2023/03/23 03:05:36;;;;;;;5.10;3.33;;;5.40;99.90;;;;;;5052225;28;20037;-65
2023/03/23 03:08:07;;;;;;;3.45;2.20;;;5.40;99.90;;;;;;5054817;28;20068;-64
2023/03/23 03:10:50;;;;;;;2.20;1.98;;;5.50;99.90;;;;;;5057501;28;20803;-65
2023/03/23 03:13:22;;;;;;;3.38;2.42;;;5.50;99.90;;;;;;5051645;28;20697;-64
2023/03/23 03:16:23;;;;;;;3.45;1.33;;;5.30;99.90;;;;;;5051288;28;20032;-64
2023/03/23 03:19:15;;;;;;;2.70;2.25;;;5.10;99.90;;;;;;5050197;28;20115;-65
2023/03/23 03:21:43;;;;;;;4.10;2.20;;;5.00;99.90;;;;;;5044161;28;20048;-65
2023/03/23 03:24:12;;;;;;;3.63;2.40;;;5.00;99.90;;;;;;5048430;28;20068;-64
2023/03/23 03:26:47;;;;;;;2.95;2.40;;;5.10;99.90;;;;;;5054688;28;20115;-64
2023/03/23 03:29:17;;;;;;;2.92;2.60;;;5.10;99.90;;;;;;5053504;28;20106;-64
2023/03/23 03:31:45;;;;;;;4.78;3.47;;;5.10;99.90;;;;;;5052628;28;20028;-65
2023/03/23 03:34:12;;;;;;;7.18;3.03;;;5.20;99.90;;;;;;5050585;28;20064;-64
2023/03/23 03:36:40;;;;;;;6.75;2.47;;;5.20;99.90;;;;;;5045418;28;20036;-64
2023/03/23 03:39:09;;;;;;;6.57;3.50;;;5.10;99.90;;;;;;5046927;28;20051;-64
2023/03/23 03:41:36;;;;;;;3.97;3.20;;;5.00;99.90;;;;;;5053261;28;20032;-65
2023/03/23 03:44:04;;;;;;;4.22;2.65;;;5.00;99.90;;;;;;5046352;28;20040;-64
2023/03/23 03:46:30;;;;;;;3.70;3.30;;;5.10;99.90;;;;;;5050079;28;20063;-64
2023/03/23 03:48:57;;;;;;;3.92;2.70;;;5.00;99.90;;;;;;5049613;28;20086;-64
2023/03/23 03:51:24;;;;;;;3.75;2.42;;;5.00;99.90;;;;;;5047260;28;20040;-65
2023/03/23 03:53:50;;;;;;;2.97;2.05;;;5.00;99.90;;;;;;5029942;28;20039;-65
2023/03/23 03:56:16;;;;;;;3.42;2.10;;;4.90;99.90;;;;;;5046192;28;20033;-65
2023/03/23 03:58:42;;;;;;;3.10;2.03;;;4.90;99.90;;;;;;5052015;28;20142;-65
2023/03/23 04:01:12;;;;;;;2.22;1.80;;;4.80;99.90;;;;;;5049883;28;20076;-65
2023/03/23 04:03:38;;;;;;;2.85;2.20;;;4.80;99.90;;;;;;5051346;28;20032;-65
2023/03/23 04:06:04;;;;;;;4.90;2.30;;;4.80;99.90;;;;;;5048283;28;20055;-65
2023/03/23 04:08:30;;;;;;;6.53;2.70;;;4.70;99.90;;;;;;5052894;28;20039;-65
2023/03/23 04:10:56;;;;;;;3.88;2.35;;;4.70;99.90;;;;;;5046550;28;20032;-65
2023/03/23 04:13:22;;;;;;;3.70;2.70;;;4.80;99.90;;;;;;5047902;28;20037;-65
2023/03/23 04:15:48;;;;;;;3.30;2.28;;;4.80;99.90;;;;;;5041138;28;20130;-65
2023/03/23 04:18:17;;;;;;;4.22;2.63;;;4.90;99.90;;;;;;5050363;28;20064;-65
2023/03/23 04:20:47;;;;;;;6.63;3.17;;;4.90;99.90;;;;;;5050544;28;20024;-65
2023/03/23 04:23:19;;;;;;;4.40;3.30;;;4.90;99.90;;;;;;5050670;28;20503;-65
2023/03/23 04:25:48;;;;;;;7.72;4.10;;;4.90;99.90;;;;;;5053929;28;20069;-65
2023/03/23 04:28:18;;;;;;;5.93;4.15;;;5.00;99.90;;;;;;5057715;28;20047;-65
2023/03/23 04:30:48;;;;;;;11.35;6.45;;;5.00;99.90;;;;;;5052200;28;20029;-65
2023/03/23 04:33:14;;;;;;;9.40;7.20;;;5.00;99.90;;;;;;5031906;28;20040;-64
2023/03/23 04:35:41;;;;;;;41.47;26.25;;;5.20;99.90;;;;;;5047086;28;20085;-65
2023/03/23 04:38:08;;;;;;;29.05;19.58;;;5.40;99.90;;;;;;5048274;28;20056;-65
2023/03/23 04:40:38;;;;;;;19.48;13.65;;;5.60;99.90;;;;;;5049062;28;20767;-65
2023/03/23 04:43:05;;;;;;;13.93;9.45;;;5.70;99.90;;;;;;5039798;28;20087;-65
2023/03/23 04:45:32;;;;;;;10.65;7.53;;;5.70;99.90;;;;;;5043113;28;21489;-65
2023/03/23 04:47:57;;;;;;;10.20;7.00;;;5.70;99.90;;;;;;5043740;28;20699;-65
2023/03/23 04:50:27;;;;;;;18.48;11.63;;;5.60;99.90;;;;;;5038970;28;20028;-65
2023/03/23 04:52:53;;;;;;;5.25;3.40;;;5.40;99.90;;;;;;5041364;28;20044;-65
2023/03/23 04:55:20;;;;;;;3.13;2.53;;;5.30;99.90;;;;;;5045860;28;20036;-65
2023/03/23 04:57:47;;;;;;;4.22;2.00;;;5.20;99.90;;;;;;5052074;28;20032;-65
2023/03/23 05:00:16;;;;;;;2.20;2.00;;;5.10;99.90;;;;;;5030116;28;20080;-65
2023/03/23 05:02:43;;;;;;;2.80;2.22;;;4.90;99.90;;;;;;5037067;28;20062;-65
2023/03/23 05:05:11;;;;;;;3.75;2.88;;;4.80;99.90;;;;;;5053020;28;20063;-65
2023/03/23 05:07:38;;;;;;;12.80;6.70;;;4.80;99.90;;;;;;5024746;28;20133;-65
2023/03/23 05:10:05;;;;;;;16.15;10.52;;;4.80;99.90;;;;;;5044037;28;20036;-65
2023/03/23 05:12:31;;;;;;;9.20;7.07;;;4.80;99.90;;;;;;5049861;28;20504;-65
2023/03/23 05:14:56;;;;;;;12.05;9.63;;;4.80;99.90;;;;;;5055516;28;20037;-67
2023/03/23 05:17:23;;;;;;;13.30;9.55;;;4.80;99.90;;;;;;5046655;28;20064;-67
2023/03/23 05:19:50;;;;;;;14.32;11.05;;;4.80;99.90;;;;;;5029897;28;20048;-67
2023/03/23 05:22:16;;;;;;;13.63;10.73;;;4.90;99.90;;;;;;5050811;28;20049;-68
2023/03/23 05:24:42;;;;;;;12.85;8.38;;;5.00;99.90;;;;;;5041023;28;20037;-67
2023/03/23 05:27:09;;;;;;;9.18;7.07;;;5.00;99.90;;;;;;5039864;28;20447;-67
2023/03/23 05:29:36;;;;;;;6.95;5.18;;;5.00;99.90;;;;;;5053244;28;20036;-67
2023/03/23 05:32:05;;;;;;;12.18;6.45;;;5.10;99.90;;;;;;5052737;28;20501;-67
2023/03/23 05:34:34;;;;;;;13.15;10.50;;;5.20;99.90;;;;;;5052255;28;20222;-67
2023/03/23 05:37:01;;;;;;;15.57;9.85;;;5.40;99.90;;;;;;5052983;28;20043;-66
2023/03/23 05:39:27;;;;;;;10.15;6.80;;;5.60;99.90;;;;;;5050555;28;20056;-67
2023/03/23 05:41:53;;;;;;;19.77;9.07;;;5.80;99.90;;;;;;5049036;28;20925;-67
2023/03/23 05:44:20;;;;;;;22.23;9.27;;;5.90;99.90;;;;;;5053785;28;20178;-67
2023/03/23 05:46:46;;;;;;;15.85;9.70;;;6.00;99.90;;;;;;5038452;28;20957;-65
2023/03/23 05:49:12;;;;;;;16.80;10.05;;;6.10;99.90;;;;;;5039122;28;20631;-65
2023/03/23 05:51:37;;;;;;;13.98;10.68;;;6.30;99.90;;;;;;5051944;28;20028;-65
2023/03/23 05:54:03;;;;;;;15.70;9.85;;;6.40;99.90;;;;;;5045383;28;20067;-65
2023/03/23 05:56:30;;;;;;;56.97;27.38;;;6.60;99.90;;;;;;5035389;28;20051;-65
2023/03/23 05:58:56;;;;;;;44.00;21.35;;;6.80;99.90;;;;;;5036981;28;20048;-65
2023/03/23 06:01:22;;;;;;;82.28;42.63;;;7.10;99.90;;;;;;5033923;28;20040;-65
2023/03/23 06:03:51;;;;;;;145.65;78.90;;;7.40;99.90;;;;;;5044828;28;20036;-65
2023/03/23 06:06:17;;;;;;;76.15;40.20;;;7.50;99.90;;;;;;5045823;28;20707;-66
2023/03/23 06:08:44;;;;;;;37.38;21.35;;;7.80;99.90;;;;;;5044598;28;20032;-65
2023/03/23 06:11:10;;;;;;;22.17;13.40;;;8.00;99.90;;;;;;5048279;28;20620;-66
2023/03/23 06:13:36;;;;;;;17.58;11.05;;;8.10;99.90;;;;;;5039324;28;20024;-66
2023/03/23 06:16:03;;;;;;;15.48;8.85;;;8.30;99.90;;;;;;5044451;28;20063;-66
2023/03/23 06:18:33;;;;;;;13.45;8.90;;;8.50;99.90;;;;;;5048443;28;20033;-66
2023/03/23 06:20:59;;;;;;;13.40;8.82;;;8.70;99.90;;;;;;5046660;28;20131;-67
2023/03/23 06:23:26;;;;;;;14.57;8.77;;;9.00;99.90;;;;;;5051742;28;20042;-67
2023/03/23 06:26:03;;;;;;;14.13;8.80;;;9.20;99.90;;;;;;5050072;28;20067;-66
2023/03/23 06:28:29;;;;;;;14.52;8.32;;;9.50;99.90;;;;;;5051700;28;20040;-67
2023/03/23 06:30:58;;;;;;;12.65;7.60;;;9.60;99.90;;;;;;5055656;28;20572;-66
2023/03/23 06:33:24;;;;;;;9.15;7.20;;;9.80;99.90;;;;;;5060422;28;20041;-66
2023/03/23 06:35:51;;;;;;;9.85;6.47;;;9.90;99.90;;;;;;5049003;28;20044;-66
2023/03/23 06:38:18;;;;;;;8.40;6.35;;;10.10;99.90;;;;;;5055278;28;20117;-67
2023/03/23 06:40:46;;;;;;;10.50;7.15;;;10.30;99.90;;;;;;5050938;28;20485;-68
2023/03/23 06:43:13;;;;;;;10.48;7.32;;;10.40;99.90;;;;;;5042202;28;20053;-68
2023/03/23 06:45:40;;;;;;;10.88;7.40;;;10.60;99.90;;;;;;5056715;28;20044;-67
2023/03/23 06:48:06;;;;;;;11.95;7.82;;;10.70;99.90;;;;;;5062697;28;20535;-67
2023/03/23 06:50:32;;;;;;;9.88;7.28;;;10.90;99.90;;;;;;5058902;28;20037;-67
2023/03/23 06:52:58;;;;;;;11.73;7.60;;;11.00;99.90;;;;;;5055207;28;20124;-67
2023/03/23 06:55:23;;;;;;;9.73;7.30;;;11.10;99.90;;;;;;5054702;28;20535;-67
2023/03/23 06:57:49;;;;;;;10.95;7.38;;;11.20;99.90;;;;;;5057025;28;20060;-67
2023/03/23 07:00:15;;;;;;;9.57;7.30;;;11.40;99.90;;;;;;5060230;28;20052;-67
2023/03/23 07:02:41;;;;;;;10.30;6.45;;;11.50;99.90;;;;;;5052875;28;20028;-67
2023/03/23 07:05:08;;;;;;;9.23;6.53;;;11.70;99.90;;;;;;5051716;28;22172;-66
2023/03/23 07:07:35;;;;;;;11.88;7.70;;;11.90;99.90;;;;;;5047359;28;20079;-67
2023/03/23 07:10:02;;;;;;;11.05;6.95;;;12.00;99.90;;;;;;5049810;28;20022;-68
2023/03/23 07:12:28;;;;;;;10.25;6.70;;;12.10;99.90;;;;;;5056698;28;20037;-68
2023/03/23 07:14:55;;;;;;;9.52;6.68;;;12.30;99.90;;;;;;5060189;28;20080;-67
2023/03/23 07:17:21;;;;;;;7.97;5.50;;;12.40;99.90;;;;;;5059142;28;20032;-67
2023/03/23 07:19:47;;;;;;;8.18;6.68;;;12.50;99.90;;;;;;5058756;28;20054;-66
2023/03/23 07:22:12;;;;;;;9.68;6.45;;;12.70;99.90;;;;;;5057859;28;20060;-67
2023/03/23 07:24:38;;;;;;;10.60;6.63;;;12.80;99.90;;;;;;5058920;28;20029;-67
2023/03/23 07:27:04;;;;;;;10.68;6.15;;;12.90;99.90;;;;;;5056011;28;20045;-67
2023/03/23 07:29:30;;;;;;;8.38;6.22;;;13.10;99.90;;;;;;5048703;28;20033;-67
2023/03/23 07:31:56;;;;;;;8.50;5.80;;;13.20;99.90;;;;;;5046497;28;20052;-67
2023/03/23 07:34:22;;;;;;;7.90;6.30;;;13.30;99.90;;;;;;5054535;28;20407;-66
2023/03/23 07:36:48;;;;;;;9.25;6.50;;;13.30;99.90;;;;;;5057213;28;20036;-67
2023/03/23 07:39:14;;;;;;;10.10;5.80;;;13.40;99.90;;;;;;5052881;28;20032;-66
2023/03/23 07:41:40;;;;;;;11.52;5.70;;;13.60;99.90;;;;;;5056761;28;20028;-67
2023/03/23 07:44:06;;;;;;;9.35;5.80;;;13.70;99.90;;;;;;5057720;28;20047;-66
2023/03/23 07:46:32;;;;;;;13.80;5.53;;;13.90;99.90;;;;;;5054097;28;20052;-66
2023/03/23 07:48:58;;;;;;;8.43;5.80;;;14.10;99.90;;;;;;5041406;28;20048;-66
2023/03/23 07:51:24;;;;;;;5.60;4.93;;;14.10;99.90;;;;;;5035258;28;22925;-66
2023/03/23 07:53:51;;;;;;;9.27;5.70;;;14.20;99.90;;;;;;5018292;28;20045;-66
2023/03/23 07:56:19;;;;;;;6.20;5.10;;;14.20;99.90;;;;;;5054618;28;20035;-67
2023/03/23 07:58:48;;;;;;;8.73;5.63;;;14.30;99.90;;;;;;5052387;28;20052;-67
2023/03/23 08:01:14;;;;;;;7.10;5.18;;;14.40;99.90;;;;;;5056589;28;20029;-67
2023/03/23 08:03:40;;;;;;;5.22;4.47;;;14.40;99.90;;;;;;5056504;28;20025;-67
2023/03/23 08:06:06;;;;;;;6.45;5.18;;;14.50;99.90;;;;;;5052927;28;20041;-67
2023/03/23 08:08:32;;;;;;;7.78;5.45;;;14.60;99.90;;;;;;5057637;28;20870;-67
2023/03/23 08:10:58;;;;;;;5.97;5.25;;;14.70;99.90;;;;;;5045018;28;20035;-67
2023/03/23 08:13:24;;;;;;;6.22;4.57;;;14.90;99.90;;;;;;5058101;28;20529;-67
2023/03/23 08:15:51;;;;;;;5.05;4.18;;;15.00;98.40;;;;;;5059476;28;20044;-67
2023/03/23 08:18:17;;;;;;;6.00;4.38;;;15.10;98.50;;;;;;5051261;28;20033;-66
2023/03/23 08:20:44;;;;;;;5.85;4.45;;;15.20;98.00;;;;;;5055728;28;20144;-66
2023/03/23 08:23:10;;;;;;;5.63;4.43;;;15.40;97.30;;;;;;5056093;28;20086;-66
2023/03/23 08:25:36;;;;;;;5.35;4.13;;;15.50;96.50;;;;;;5057519;28;20028;-66
2023/03/23 08:28:01;;;;;;;6.97;4.63;;;15.60;96.50;;;;;;5046355;28;20045;-66
2023/03/23 08:30:29;;;;;;;5.95;4.43;;;15.70;95.90;;;;;;5044201;28;20098;-72
2023/03/23 08:32:57;;;;;;;5.13;3.85;;;15.80;97.00;;;;;;5038199;28;20649;-66
2023/03/23 08:35:23;;;;;;;4.57;3.60;;;16.10;95.50;;;;;;5051347;28;20032;-66
2023/03/23 08:37:54;;;;;;;6.85;3.45;;;16.10;94.10;;;;;;5043666;28;20079;-66
2023/03/23 08:40:22;;;;;;;3.33;2.78;;;16.20;92.90;;;;;;5057695;28;20045;-66
2023/03/23 08:42:50;;;;;;;3.03;2.55;;;16.20;92.50;;;;;;5053289;28;20112;-67
2023/03/23 08:45:19;;;;;;;4.28;2.78;;;16.30;91.70;;;;;;5058451;28;20055;-66
2023/03/23 08:47:46;;;;;;;4.57;3.20;;;16.40;91.20;;;;;;5052124;28;20163;-67
2023/03/23 08:50:14;;;;;;;5.40;3.38;;;16.40;91.30;;;;;;5059110;28;20044;-66
2023/03/23 08:52:41;;;;;;;9.07;3.88;;;16.40;91.40;;;;;;5056725;28;20051;-66
2023/03/23 08:55:08;;;;;;;4.03;3.28;;;16.50;91.90;;;;;;5054471;28;20029;-67
2023/03/23 08:57:35;;;;;;;4.45;3.38;;;16.50;91.80;;;;;;5044289;28;20120;-76
2023/03/23 09:00:13;;;;;;;4.07;3.30;;;16.50;91.60;;;;;;5048094;28;20061;-68
2023/03/23 09:02:40;;;;;;;4.40;3.22;;;16.60;91.40;;;;;;5046666;28;20051;-68
2023/03/23 09:05:06;;;;;;;3.50;3.05;;;16.60;91.10;;;;;;5047375;28;20385;-68
2023/03/23 09:07:32;;;;;;;5.05;3.35;;;16.70;90.40;;;;;;5043533;28;20642;-69
2023/03/23 09:09:58;;;;;;;4.28;3.42;;;16.70;90.70;;;;;;5044659;28;20048;-69
2023/03/23 09:12:24;;;;;;;5.25;3.63;;;16.80;90.50;;;;;;5051911;28;20045;-68
2023/03/23 09:14:50;;;;;;;5.47;3.72;;;16.90;90.30;;;;;;5046902;28;20041;-68
2023/03/23 09:17:15;;;;;;;5.90;3.40;;;17.00;89.10;;;;;;5046200;28;20134;-69
2023/03/23 09:19:41;;;;;;;4.10;3.30;;;17.00;89.40;;;;;;5046130;28;20488;-69
2023/03/23 09:22:07;;;;;;;5.30;3.15;;;17.10;87.80;;;;;;5047561;28;20087;-69
2023/03/23 09:24:34;;;;;;;5.70;3.10;;;17.10;86.90;;;;;;5039416;28;20815;-70
2023/03/23 09:26:59;;;;;;;4.90;3.55;;;17.20;86.60;;;;;;5047170;28;20055;-68
2023/03/23 09:29:26;;;;;;;9.45;3.72;;;17.20;86.60;;;;;;5046380;28;20036;-70
2023/03/23 09:31:53;;;;;;;3.40;3.10;;;17.40;86.70;;;;;;5037518;28;20834;-70
2023/03/23 09:34:18;;;;;;;3.22;2.80;;;17.50;86.70;;;;;;5047142;28;20491;-69
2023/03/23 09:36:44;;;;;;;6.20;4.55;;;17.60;82.80;;;;;;5039456;28;20079;-70
2023/03/23 09:39:11;;;;;;;4.32;3.42;;;17.60;82.90;;;;;;5032640;28;20047;-70
2023/03/23 09:42:00;;;;;;;6.22;3.45;;;17.60;82.40;;;;;;5042339;28;21520;-70
2023/03/23 09:45:03;;;;;;;7.78;4.03;;;17.50;83.60;;;;;;5046432;28;20033;-69
2023/03/23 09:47:33;;;;;;;23.98;4.38;;;17.50;84.50;;;;;;5045444;28;20059;-70
2023/03/23 09:50:18;;;;;;;4.32;3.67;;;17.60;84.90;;;;;;5037020;28;20042;-70
2023/03/23 09:52:51;;;;;;;4.63;3.67;;;17.60;83.80;;;;;;5046977;28;20036;-66
2023/03/23 09:55:19;;;;;;;6.15;3.95;;;17.60;83.70;;;;;;5035783;28;20722;-66
2023/03/23 09:58:00;;;;;;;8.38;4.90;;;17.60;84.10;;;;;;5042156;28;20183;-67
2023/03/23 10:00:30;;;;;;;7.93;3.90;;;17.60;83.60;;;;;;5040122;28;20408;-68
2023/03/23 10:03:38;;;;;;;5.20;4.05;;;17.60;82.00;;;;;;5047595;28;20060;-68
2023/03/23 10:06:04;;;;;;;6.45;4.07;;;17.50;82.00;;;;;;4931495;28;21756;-67
2023/03/23 10:08:32;;;;;;;8.90;6.00;;;17.50;84.30;;;;;;4933059;28;20035;-67
2023/03/23 10:11:10;;;;;;;6.68;5.65;;;17.50;85.00;;;;;;4990231;28;20122;-68
2023/03/23 10:14:04;;;;;;;11.43;5.78;;;17.50;84.50;;;;;;5044055;28;20603;-67
2023/03/23 10:16:36;;;;;;;5.60;4.20;;;17.40;83.40;;;;;;5042400;28;20040;-68
2023/03/23 10:19:02;;;;;;;;;;;17.50;83.90;;;;;;5027700;28;20033;-66
2023/03/23 10:21:30;;;;;;;6.85;4.60;;;17.50;83.20;;;;;;5041246;28;19956;-66
2023/03/23 10:24:01;;;;;;;9.73;4.82;;;17.60;84.10;;;;;;5046348;28;20118;-66
2023/03/23 10:26:36;;;;;;;5.78;4.82;;;17.60;84.00;;;;;;5044599;28;20047;-66
2023/03/23 10:29:17;;;;;;;6.53;5.30;;;17.70;81.60;;;;;;5043825;28;20045;-66
2023/03/23 10:32:09;;;;;;;8.65;4.80;;;17.70;82.10;;;;;;5044355;28;20051;-66
2023/03/23 10:34:44;;;;;;;5.90;4.65;;;17.80;83.10;;;;;;5027543;28;20094;-66
2023/03/23 10:37:21;;;;;;;7.75;4.45;;;17.80;82.10;;;;;;5044996;28;20119;-67
2023/03/23 10:39:56;;;;;;;5.63;3.95;;;17.90;82.00;;;;;;5044845;28;20063;-66
2023/03/23 10:42:26;;;;;;;8.18;5.75;;;17.90;81.70;;;;;;5036420;28;20039;-66
2023/03/23 10:44:53;;;;;;;9.98;6.68;;;18.00;80.70;;;;;;5046363;28;21984;-66
2023/03/23 10:47:18;;;;;;;11.23;5.30;;;18.00;80.30;;;;;;5044827;28;20040;-68
2023/03/23 10:49:50;;;;;;;9.85;5.03;;;18.00;78.90;;;;;;5043276;28;21058;-67
2023/03/23 10:52:35;;;;;;;10.15;6.50;;;17.90;78.90;;;;;;5044673;28;20189;-68
2023/03/23 10:55:07;;;;;;;5.50;4.90;;;17.90;79.70;;;;;;5046956;28;20681;-66
2023/03/23 10:57:36;;;;;;;7.95;4.93;;;17.90;78.90;;;;;;5045779;28;20036;-66
2023/03/23 11:00:17;;;;;;;7.30;5.00;;;18.00;78.50;;;;;;5047011;28;20499;-65
2023/03/23 11:02:47;;;;;;;5.03;4.53;;;18.00;77.20;;;;;;5043294;28;20741;-66
2023/03/23 11:05:26;;;;;;;6.15;4.75;;;18.00;78.40;;;;;;5039171;28;20092;-66
2023/03/23 11:07:57;;;;;;;8.00;4.50;;;18.10;79.00;;;;;;5044810;28;20518;-66
2023/03/23 11:10:24;;;;;;;8.43;4.80;;;18.10;77.90;;;;;;5041450;28;20038;-64
2023/03/23 11:12:49;;;;;;;11.70;5.95;;;18.20;78.00;;;;;;5043406;28;20429;-66
2023/03/23 11:15:40;;;;;;;8.80;4.47;;;18.20;78.20;;;;;;5032905;28;20094;-66
2023/03/23 11:18:10;;;;;;;9.45;6.35;;;18.20;76.40;;;;;;5030661;28;20064;-66
2023/03/23 11:20:41;;;;;;;9.10;5.57;;;18.20;76.20;;;;;;5042411;28;20094;-67
2023/03/23 11:23:20;;;;;;;9.52;5.18;;;18.30;76.40;;;;;;5040678;28;20037;-67
2023/03/23 11:26:21;;;;;;;24.30;11.38;;;18.40;75.70;;;;;;5043960;28;20048;-67
2023/03/23 11:28:55;;;;;;;10.32;5.85;;;18.50;76.40;;;;;;5044231;28;20045;-66
2023/03/23 11:31:29;;;;;;;8.18;5.43;;;18.60;75.30;;;;;;5038703;28;20037;-66
2023/03/23 11:34:18;;;;;;;8.60;5.47;;;18.80;77.00;;;;;;5030113;28;20052;-65
2023/03/23 11:37:09;;;;;;;13.13;4.43;;;19.10;75.30;;;;;;5036186;28;20067;-67
2023/03/23 11:39:49;;;;;;;7.07;5.43;;;19.10;73.70;;;;;;5037012;28;20045;-67
2023/03/23 11:42:40;;;;;;;7.05;5.28;;;19.20;73.00;;;;;;5031396;28;21173;-67
2023/03/23 11:45:22;;;;;;;6.35;4.43;;;19.30;71.90;;;;;;5002567;28;20094;-66
2023/03/23 11:48:21;;;;;;;7.25;4.55;;;19.20;72.40;;;;;;5059439;28;20067;-67
2023/03/23 11:51:05;;;;;;;10.88;6.15;;;19.30;70.90;;;;;;5043315;28;20040;-66
2023/03/23 11:53:55;;;;;;;5.43;4.53;;;19.10;70.90;;;;;;5036044;28;20306;-67
2023/03/23 11:56:34;;;;;;;5.40;4.50;;;19.00;72.20;;;;;;5030846;28;20041;-66
2023/03/23 11:59:03;;;;;;;5.63;4.30;;;19.10;71.70;;;;;;5038457;28;20103;-66
2023/03/23 12:01:50;;;;;;;9.52;4.70;;;19.20;72.60;;;;;;5038275;28;20030;-66
2023/03/23 12:04:33;;;;;;;9.07;4.68;;;19.40;71.10;;;;;;5036196;28;20047;-66
2023/03/23 12:07:38;;;;;;;6.40;4.20;;;19.40;70.00;;;;;;5040746;28;20048;-67
2023/03/23 12:10:47;;;;;;;7.38;4.25;;;19.40;70.70;;;;;;5040266;28;20029;-65
2023/03/23 12:13:18;;;;;;;3.65;3.03;;;19.40;69.60;;;;;;5046266;28;20083;-66
2023/03/23 12:16:22;;;;;;;5.45;3.90;;;19.30;70.80;;;;;;5044871;28;20041;-66
2023/03/23 12:18:59;;;;;;;9.52;3.20;;;19.40;72.30;;;;;;5047249;28;20029;-67
2023/03/23 12:21:38;;;;;;;4.07;2.80;;;19.60;71.00;;;;;;5047070;28;20037;-67
2023/03/23 12:24:17;;;;;;;4.88;3.22;;;19.70;70.00;;;;;;5044531;28;20029;-66
2023/03/23 12:27:16;;;;;;;7.88;3.20;;;19.80;69.60;;;;;;5047245;28;20040;-66
2023/03/23 12:30:11;;;;;;;5.53;3.20;;;19.90;70.60;;;;;;5040342;28;20149;-67
2023/03/23 12:33:03;;;;;;;6.18;3.08;;;19.90;70.50;;;;;;5030072;28;21537;-66
2023/03/23 12:35:37;;;;;;;2.88;2.65;;;20.00;69.90;;;;;;5045057;28;20045;-66
2023/03/23 12:38:46;;;;;;;3.17;2.88;;;20.10;69.20;;;;;;5041631;28;20126;-66
2023/03/23 12:41:36;;;;;;;3.50;3.17;;;20.00;69.70;;;;;;4970218;28;20035;-66
2023/03/23 12:44:10;;;;;;;3.40;2.33;;;20.10;68.40;;;;;;5029113;28;20968;-67
2023/03/23 12:47:01;;;;;;;15.38;2.90;;;20.10;69.30;;;;;;5042865;28;20044;-67
2023/03/23 12:49:39;;;;;;;3.50;3.10;;;20.10;69.60;;;;;;5043303;28;20029;-67
2023/03/23 12:52:15;;;;;;;6.07;2.97;;;20.20;68.40;;;;;;5038330;28;20029;-67
2023/03/23 12:54:58;;;;;;;3.97;3.13;;;20.20;68.70;;;;;;5040682;28;20048;-67
2023/03/23 12:57:58;;;;;;;4.53;2.97;;;20.10;68.50;;;;;;5046122;28;20147;-67
2023/03/23 13:00:29;;;;;;;3.20;2.75;;;20.10;68.50;;;;;;5043725;28;20036;-67
2023/03/23 13:03:42;;;;;;;7.18;3.90;;;20.20;69.80;;;;;;5041319;28;20036;-66
2023/03/23 13:06:44;;;;;;;6.07;3.38;;;20.30;69.30;;;;;;4986324;28;20071;-66
2023/03/23 13:09:18;;;;;;;3.80;2.67;;;20.30;67.70;;;;;;5049520;28;20044;-66